createdAt,value
2022-09-23T00:04:43.583Z,10.70
2022-09-23T00:09:42.894Z,12.10
2022-09-23T00:14:43.071Z,12.90
2022-09-23T00:19:44.668Z,10.10
2022-09-23T00:24:43.395Z,11.40
2022-09-23T00:29:42.716Z,11.60
2022-09-23T00:34:41.612Z,9.90
2022-09-23T00:39:41.282Z,10.20
2022-09-23T00:44:55.907Z,12.10
2022-09-23T00:50:05.100Z,11.60
2022-09-23T00:55:10.147Z,10.30
2022-09-23T01:00:12.993Z,8.90
2022-09-23T01:05:14.839Z,10.20
2022-09-23T01:10:17.375Z,9.90
2022-09-23T01:15:23.268Z,8.70
2022-09-23T01:20:49.607Z,10.30
2022-09-23T01:26:09.319Z,8.70
2022-09-23T01:31:18.906Z,11.60
2022-09-23T01:36:29.059Z,8.60
2022-09-23T01:41:51.956Z,10.00
2022-09-23T01:46:56.944Z,11.20
2022-09-23T01:52:07.976Z,11.60
2022-09-23T01:57:16.824Z,10.40
2022-09-23T02:02:22.496Z,11.20
2022-09-23T02:07:28.767Z,11.50
2022-09-23T02:12:35.495Z,8.10
2022-09-23T02:17:43.869Z,10.20
2022-09-23T02:22:52.820Z,10.80
2022-09-23T02:28:02.248Z,9.80
2022-09-23T02:33:10.304Z,10.30
2022-09-23T02:38:26.192Z,10.80
2022-09-23T02:43:40.410Z,10.20
2022-09-23T02:48:44.406Z,7.30
2022-09-23T02:53:46.147Z,9.10
2022-09-23T02:58:47.143Z,10.20
2022-09-23T03:03:57.425Z,11.20
2022-09-23T03:09:05.488Z,8.00
2022-09-23T03:14:18.096Z,11.70
2022-09-23T03:19:30.025Z,10.00
2022-09-23T03:24:32.280Z,8.30
2022-09-23T03:29:32.353Z,10.20
2022-09-23T03:34:36.764Z,9.40
2022-09-23T03:39:43.041Z,10.40
2022-09-23T03:44:46.549Z,13.80
2022-09-23T03:49:48.488Z,11.40
2022-09-23T03:54:48.027Z,8.50
2022-09-23T03:59:47.123Z,11.70
2022-09-23T04:04:47.131Z,9.30
2022-09-23T04:09:46.329Z,8.70
2022-09-23T04:14:46.428Z,10.00
2022-09-23T04:19:47.109Z,10.10
2022-09-23T04:24:46.361Z,8.90
2022-09-23T04:29:46.724Z,10.60
2022-09-23T04:34:45.596Z,9.60
2022-09-23T04:39:44.413Z,8.30
2022-09-23T04:44:43.542Z,9.80
2022-09-23T04:49:42.383Z,9.50
2022-09-23T04:54:41.865Z,12.60
2022-09-23T04:59:41.447Z,10.30
2022-09-23T05:04:41.815Z,11.40
2022-09-23T05:09:41.639Z,10.00
2022-09-23T05:14:41.971Z,11.50
2022-09-23T05:19:41.772Z,11.80
2022-09-23T05:24:40.712Z,11.90
2022-09-23T05:29:40.601Z,10.00
2022-09-23T05:34:40.253Z,9.70
2022-09-23T05:39:39.310Z,12.40
2022-09-23T05:44:38.262Z,10.80
2022-09-23T05:49:58.059Z,13.00
2022-09-23T05:54:56.551Z,10.50
2022-09-23T05:59:56.154Z,12.70
2022-09-23T06:04:55.129Z,12.80
2022-09-23T06:09:55.920Z,10.70
2022-09-23T06:14:55.359Z,13.80
2022-09-23T06:19:54.295Z,13.20
2022-09-23T06:24:52.898Z,10.20
2022-09-23T06:29:52.734Z,10.30
2022-09-23T06:34:52.568Z,8.30
2022-09-23T06:39:58.990Z,11.90
2022-09-23T06:45:17.933Z,10.00
2022-09-23T06:50:24.235Z,9.20
2022-09-23T06:55:23.806Z,9.60
2022-09-23T07:00:23.775Z,8.30
2022-09-23T07:05:23.219Z,9.30
2022-09-23T07:10:22.971Z,7.80
2022-09-23T07:15:22.041Z,15.20
2022-09-23T07:20:21.598Z,7.10
2022-09-23T07:25:20.485Z,10.00
2022-09-23T07:30:25.192Z,5.70
2022-09-23T07:35:28.268Z,6.20
2022-09-23T07:40:27.757Z,6.70
2022-09-23T07:45:26.963Z,4.30
2022-09-23T07:50:25.999Z,5.70
2022-09-23T07:55:25.814Z,3.60
2022-09-23T08:00:24.734Z,4.10
2022-09-23T08:05:24.474Z,5.80
2022-09-23T08:10:23.694Z,3.20
2022-09-23T08:15:24.708Z,3.90
2022-09-23T08:20:37.653Z,2.20
2022-09-23T08:25:37.168Z,3.20
2022-09-23T08:30:40.348Z,2.70
2022-09-23T08:35:40.941Z,3.80
2022-09-23T08:40:44.684Z,4.30
2022-09-23T08:45:46.078Z,4.40
2022-09-23T08:50:50.232Z,4.50
2022-09-23T08:55:53.706Z,3.60
2022-09-23T09:01:08.073Z,3.20
2022-09-23T09:06:08.506Z,2.30
2022-09-23T09:11:09.791Z,3.60
2022-09-23T09:16:57.965Z,1.60
2022-09-23T09:21:55.816Z,2.70
2022-09-23T09:26:55.215Z,2.60
2022-09-23T09:31:56.543Z,1.10
2022-09-23T09:37:07.549Z,1.00
2022-09-23T09:42:07.978Z,3.10
2022-09-23T09:47:41.534Z,3.30
2022-09-23T09:52:43.389Z,0.80
2022-09-23T09:57:49.787Z,2.50
2022-09-23T10:02:53.054Z,1.20
2022-09-23T10:07:51.761Z,1.20
2022-09-23T10:12:52.223Z,1.60
2022-09-23T10:17:54.908Z,5.10
2022-09-23T10:22:56.918Z,1.50
2022-09-23T10:27:55.789Z,1.50
2022-09-23T10:32:57.275Z,1.30
2022-09-23T10:37:59.549Z,2.10
2022-09-23T10:43:42.047Z,1.70
2022-09-23T10:49:01.071Z,1.40
2022-09-23T10:54:10.971Z,1.30
2022-09-23T10:59:43.227Z,2.50
2022-09-23T11:05:20.346Z,4.50
2022-09-23T11:11:00.666Z,2.10
2022-09-23T11:16:10.659Z,1.60
2022-09-23T11:21:32.281Z,1.60
2022-09-23T11:26:53.216Z,1.50
2022-09-23T11:32:08.384Z,4.50
2022-09-23T11:37:14.160Z,1.70
2022-09-23T11:42:24.159Z,3.10
2022-09-23T11:47:30.860Z,1.90
2022-09-23T11:52:37.183Z,2.10
2022-09-23T11:57:49.156Z,2.00
2022-09-23T12:03:06.594Z,1.60
2022-09-23T12:08:14.532Z,0.80
2022-09-23T12:13:22.977Z,1.70
2022-09-23T12:18:57.036Z,0.80
2022-09-23T12:24:21.081Z,2.60
2022-09-23T12:29:20.004Z,2.10
2022-09-23T12:34:31.931Z,1.90
2022-09-23T12:39:37.506Z,2.60
2022-09-23T12:44:42.454Z,3.00
2022-09-23T12:49:42.498Z,2.80
2022-09-23T12:54:42.976Z,2.10
2022-09-23T13:00:01.722Z,2.50
2022-09-23T13:05:28.797Z,3.60
2022-09-23T13:10:40.183Z,1.80
2022-09-23T13:15:41.350Z,2.40
2022-09-23T13:20:43.764Z,1.90
2022-09-23T13:25:47.097Z,3.10
2022-09-23T13:30:54.547Z,3.20
2022-09-23T13:35:58.843Z,4.20
2022-09-23T13:41:02.104Z,2.10
2022-09-23T13:46:05.394Z,2.90
2022-09-23T13:51:12.590Z,2.80
2022-09-23T13:56:16.592Z,2.50
2022-09-23T14:01:33.446Z,3.70
2022-09-23T14:06:40.677Z,1.20
2022-09-23T14:11:40.539Z,2.30
2022-09-23T14:16:42.530Z,2.30
2022-09-23T14:21:43.553Z,2.50
2022-09-23T14:26:44.190Z,1.80
2022-09-23T14:31:44.513Z,2.30
2022-09-23T14:37:01.403Z,1.50
2022-09-23T14:42:00.912Z,1.10
2022-09-23T14:47:03.211Z,1.80
2022-09-23T14:52:08.331Z,2.30
2022-09-23T14:57:29.480Z,2.40
2022-09-23T15:02:37.299Z,2.40
2022-09-23T15:07:39.542Z,1.40
2022-09-23T15:12:44.577Z,1.90
2022-09-23T15:17:43.896Z,1.60
2022-09-23T15:22:50.178Z,1.50
2022-09-23T15:28:03.502Z,3.20
2022-09-23T15:33:03.296Z,1.40
2022-09-23T15:38:04.514Z,1.30
2022-09-23T15:43:20.525Z,1.20
2022-09-23T15:48:24.189Z,1.90
2022-09-23T15:53:30.209Z,2.60
2022-09-23T15:58:30.205Z,1.70
2022-09-23T16:03:30.077Z,1.70
2022-09-23T16:08:29.714Z,2.50
2022-09-23T16:13:29.249Z,2.00
2022-09-23T16:18:31.323Z,2.80
2022-09-23T16:23:41.487Z,2.70
2022-09-23T16:28:50.132Z,4.00
2022-09-23T16:33:51.504Z,2.90
2022-09-23T16:38:55.681Z,2.70
2022-09-23T16:43:55.806Z,5.10
2022-09-23T16:48:57.420Z,5.50
2022-09-23T16:53:59.458Z,5.50
2022-09-23T16:59:04.368Z,6.10
2022-09-23T17:04:06.866Z,8.10
2022-09-23T17:09:10.248Z,7.30
2022-09-23T17:14:13.121Z,7.40
2022-09-23T17:19:14.225Z,7.60
2022-09-23T17:24:15.847Z,8.70
2022-09-23T17:29:18.807Z,9.20
2022-09-23T17:34:21.129Z,5.80
2022-09-23T17:39:26.127Z,6.30
2022-09-23T17:44:25.297Z,5.80
2022-09-23T17:49:34.903Z,7.50
2022-09-23T17:54:36.212Z,6.20
2022-09-23T17:59:46.604Z,9.80
2022-09-23T18:04:48.843Z,10.50
2022-09-23T18:09:52.787Z,11.00
2022-09-23T18:14:53.230Z,12.10
2022-09-23T18:19:52.417Z,16.70
2022-09-23T18:24:51.783Z,10.60
2022-09-23T18:29:51.501Z,8.70
2022-09-23T18:34:51.391Z,8.30
2022-09-23T18:39:50.271Z,7.50
2022-09-23T18:44:54.410Z,6.90
2022-09-23T18:50:11.359Z,8.30
2022-09-23T18:55:12.677Z,6.20
2022-09-23T19:00:15.596Z,5.70
2022-09-23T19:05:15.504Z,8.00
2022-09-23T19:10:14.894Z,5.10
2022-09-23T19:15:15.185Z,6.40
2022-09-23T19:20:15.508Z,5.50
2022-09-23T19:25:14.833Z,5.80
2022-09-23T19:30:16.313Z,6.70
2022-09-23T19:35:16.328Z,6.50
2022-09-23T19:40:17.933Z,6.90
2022-09-23T19:45:18.324Z,6.90
2022-09-23T19:50:28.004Z,8.00
2022-09-23T19:55:29.770Z,8.40
2022-09-23T20:00:29.165Z,6.70
2022-09-23T20:05:29.893Z,5.60
2022-09-23T20:10:28.704Z,5.80
2022-09-23T20:15:29.315Z,7.20
2022-09-23T20:20:29.088Z,6.40
2022-09-23T20:25:28.622Z,5.90
2022-09-23T20:30:29.897Z,6.40
2022-09-23T20:35:33.109Z,7.00
2022-09-23T20:40:32.099Z,6.30
2022-09-23T20:45:33.577Z,8.90
2022-09-23T20:50:35.676Z,7.50
2022-09-23T20:55:36.393Z,6.80
2022-09-23T21:00:36.402Z,7.80
2022-09-23T21:05:37.621Z,8.20
2022-09-23T21:10:37.519Z,11.00
2022-09-23T21:15:41.855Z,12.30
2022-09-23T21:20:40.974Z,12.50
2022-09-23T21:25:40.405Z,13.80
2022-09-23T21:30:39.378Z,14.90
2022-09-23T21:35:38.448Z,12.80
2022-09-23T21:40:55.274Z,14.80
2022-09-23T21:45:59.794Z,11.50
2022-09-23T21:51:04.983Z,13.80
2022-09-23T21:56:10.910Z,12.50
2022-09-23T22:01:16.565Z,10.40
2022-09-23T22:06:19.755Z,9.50
2022-09-23T22:11:38.704Z,13.90
2022-09-23T22:16:39.122Z,12.80
2022-09-23T22:21:41.376Z,11.00
2022-09-23T22:26:43.256Z,11.70
2022-09-23T22:31:59.041Z,12.10
2022-09-23T22:36:58.053Z,14.60
2022-09-23T22:41:58.690Z,12.00
2022-09-23T22:46:59.028Z,11.30
2022-09-23T22:51:57.956Z,11.90
2022-09-23T22:56:56.761Z,9.30
2022-09-23T23:01:55.554Z,11.90
2022-09-23T23:06:54.805Z,11.90
2022-09-23T23:11:53.635Z,11.30
2022-09-23T23:16:53.639Z,11.50
2022-09-23T23:21:53.984Z,11.00
2022-09-23T23:26:54.016Z,10.20
2022-09-23T23:31:53.071Z,8.80
2022-09-23T23:36:55.502Z,9.00
2022-09-23T23:41:57.269Z,9.80
2022-09-23T23:46:57.223Z,11.10
2022-09-23T23:51:56.238Z,12.70
2022-09-23T23:56:55.373Z,15.10
